Time;durP1;ratioP1;P1;durP2;ratioP2;P2;SDS_P1;SDS_P2;PMS_P1;PMS_P2;Temp;Humidity;BMP_temperature;BMP_pressure;BME280_temperature;BME280_humidity;BME280_pressure;Samples;Min_cycle;Max_cycle;Signal;HPM_P1;HPM_P2
2022/06/10 00:02:11;;;;;;;4.97;4.03;;;;;;;25.94;55.71;99447.73;1678113;83;21073;-62
2022/06/10 00:04:38;;;;;;;5.92;4.35;;;;;;;25.92;55.67;99452.08;1720024;82;22061;-61
2022/06/10 00:07:04;;;;;;;5.42;4.05;;;;;;;25.90;55.70;99452.87;1689660;84;21021;-61
2022/06/10 00:09:31;;;;;;;4.28;3.90;;;;;;;25.89;55.68;99450.70;1687601;83;21067;-62
2022/06/10 00:11:58;;;;;;;5.12;3.83;;;;;;;25.88;55.60;99452.34;1686226;83;21001;-60
2022/06/10 00:14:26;;;;;;;4.78;4.25;;;;;;;25.87;55.58;99456.16;1700747;83;21051;-62
2022/06/10 00:16:52;;;;;;;4.75;4.28;;;;;;;25.86;55.62;99457.24;1702129;83;21151;-60
2022/06/10 00:19:19;;;;;;;5.92;4.40;;;;;;;25.85;55.54;99452.91;1707411;83;21033;-61
2022/06/10 00:21:45;;;;;;;4.83;4.33;;;;;;;25.84;55.47;99464.31;1691795;84;21052;-61
2022/06/10 00:24:12;;;;;;;4.47;3.62;;;;;;;25.82;55.51;99458.89;1694346;83;21070;-61
2022/06/10 00:26:39;;;;;;;5.80;3.98;;;;;;;25.81;55.47;99463.52;1704655;83;21029;-61
2022/06/10 00:29:05;;;;;;;6.72;3.83;;;;;;;25.80;55.42;99461.07;1695559;83;22041;-61
2022/06/10 00:31:32;;;;;;;5.58;4.40;;;;;;;25.79;55.36;99465.70;1708161;83;21607;-62
2022/06/10 00:34:00;;;;;;;4.60;4.10;;;;;;;25.78;55.28;99460.53;1716327;83;21489;-61
2022/06/10 00:36:26;;;;;;;4.55;4.00;;;;;;;25.77;55.25;99457.53;1675626;84;21050;-61
2022/06/10 00:38:53;;;;;;;7.58;4.33;;;;;;;25.76;55.19;99462.16;1662278;84;21070;-61
2022/06/10 00:41:19;;;;;;;4.22;3.70;;;;;;;25.75;55.19;99463.79;1688023;84;22072;-61
2022/06/10 00:43:46;;;;;;;4.80;3.90;;;;;;;25.74;55.17;99459.45;1686525;84;21541;-61
2022/06/10 00:46:27;;;;;;;4.80;4.25;;;;;;;25.73;55.14;99457.29;1671870;84;21561;-62
2022/06/10 00:49:08;;;;;;;5.87;3.80;;;;;;;25.72;55.15;99460.28;1651746;85;21078;-62
2022/06/10 00:51:47;;;;;;;5.53;3.97;;;;;;;25.71;55.02;99460.83;1659829;84;21098;-62
2022/06/10 00:54:22;;;;;;;4.90;3.98;;;;;;;25.69;54.95;99457.55;1673285;84;21224;-61
2022/06/10 00:56:56;;;;;;;5.95;3.90;;;;;;;25.69;54.90;99453.46;1681826;84;21034;-61
2022/06/10 00:59:25;;;;;;;4.55;4.15;;;;;;;25.69;54.80;99458.91;1670623;83;21378;-61
2022/06/10 01:01:56;;;;;;;4.72;4.17;;;;;;;25.67;54.68;99452.41;1670443;84;21061;-62
2022/06/10 01:04:25;;;;;;;5.45;3.87;;;;;;;25.67;54.87;99448.84;1703447;83;21073;-61
2022/06/10 01:06:51;;;;;;;4.40;4.00;;;;;;;25.66;54.64;99449.40;1684949;83;21195;-61
2022/06/10 01:09:19;;;;;;;4.47;4.08;;;;;;;25.67;54.69;99448.32;1698252;83;21514;-62
2022/06/10 01:12:19;;;;;;;5.37;4.03;;;;;;;25.67;54.69;99451.56;1711788;82;21525;-62
2022/06/10 01:15:23;;;;;;;5.20;3.98;;;;;;;25.66;54.52;99447.23;1708608;82;21049;-61
2022/06/10 01:21:04;;;;;;;5.25;4.30;;;;;;;25.68;54.41;99452.66;1848325;75;23438;-62
2022/06/10 01:24:08;;;;;;;6.83;4.45;;;;;;;25.66;54.24;99463.55;1844697;76;20992;-61
2022/06/10 01:30:35;;;;;;;4.92;3.92;;;;;;;25.63;53.96;99462.20;1771165;79;21086;-60
2022/06/10 01:33:25;;;;;;;4.60;4.20;;;;;;;25.60;53.92;99464.10;1804176;79;21068;-62
2022/06/10 01:36:00;;;;;;;4.47;4.17;;;;;;;25.57;53.91;99468.72;1826333;77;21579;-62
2022/06/10 01:38:38;;;;;;;5.90;4.33;;;;;;;25.55;53.82;99468.17;1832193;76;20942;-61
2022/06/10 01:41:20;;;;;;;4.83;4.33;;;;;;;25.53;53.81;99477.16;1813255;77;21838;-60
2022/06/10 01:44:09;;;;;;;4.70;4.30;;;;;;;25.52;53.80;99475.55;1817301;77;20994;-62
2022/06/10 01:46:42;;;;;;;4.85;4.35;;;;;;;25.50;53.82;99478.53;1807972;76;21075;-61
2022/06/10 01:49:24;;;;;;;5.30;4.22;;;;;;;25.48;53.78;99479.34;1827343;77;21091;-61
2022/06/10 01:52:11;;;;;;;4.87;4.20;;;;;;;25.48;53.76;99478.54;1773433;78;21131;-61
2022/06/10 01:54:52;;;;;;;11.57;5.12;;;;;;;25.46;53.71;99480.16;1800807;77;22075;-63
2022/06/10 01:57:27;;;;;;;5.12;4.42;;;;;;;25.45;53.67;99478.52;1745492;78;21221;-62
2022/06/10 02:00:02;;;;;;;4.67;4.28;;;;;;;25.43;53.64;99476.63;1816345;76;21524;-61
2022/06/10 02:02:33;;;;;;;5.90;4.30;;;;;;;25.43;53.61;99475.81;1819655;78;21538;-63
2022/06/10 02:05:06;;;;;;;5.67;4.45;;;;;;;25.42;53.62;99471.45;1817827;77;20973;-61
2022/06/10 02:07:40;;;;;;;5.80;4.37;;;;;;;25.40;53.65;99475.83;1827344;77;21785;-61
2022/06/10 02:10:27;;;;;;;5.08;4.55;;;;;;;25.40;53.64;99464.11;1815317;76;21018;-60
2022/06/10 02:12:59;;;;;;;4.45;4.05;;;;;;;25.39;53.65;99472.82;1827829;76;21069;-61
2022/06/10 02:15:31;;;;;;;4.78;3.98;;;;;;;25.38;53.65;99476.64;1835679;77;20995;-61
2022/06/10 02:18:19;;;;;;;4.15;3.75;;;;;;;25.37;53.69;99464.67;1816043;77;21063;-61
2022/06/10 02:20:50;;;;;;;4.50;4.17;;;;;;;25.37;53.70;99476.91;1772553;79;22086;-62
2022/06/10 02:23:22;;;;;;;4.58;4.17;;;;;;;25.35;53.66;99476.37;1782486;79;21043;-60
2022/06/10 02:25:52;;;;;;;4.63;4.00;;;;;;;25.35;53.81;99485.88;1770932;79;21363;-60
2022/06/10 02:28:27;;;;;;;5.67;4.50;;;;;;;25.35;53.81;99485.88;1786868;79;21108;-60
2022/06/10 02:31:21;;;;;;;5.67;4.55;;;;;;;25.34;53.60;99490.48;1758946;79;21091;-61
2022/06/10 02:33:50;;;;;;;4.33;3.92;;;;;;;25.34;53.63;99491.03;1773898;79;22082;-61
2022/06/10 02:36:28;;;;;;;5.80;5.22;;;;;;;25.33;53.63;99489.42;1761985;80;21056;-61
2022/06/10 02:39:14;;;;;;;5.20;4.70;;;;;;;25.32;53.58;99491.30;1776168;79;21210;-60
2022/06/10 02:42:05;;;;;;;4.72;4.30;;;;;;;25.30;53.62;99488.88;1768492;79;21573;-62
2022/06/10 02:44:58;;;;;;;5.72;4.45;;;;;;;25.31;53.62;99496.48;1765869;80;21099;-61
2022/06/10 02:47:49;;;;;;;4.75;4.25;;;;;;;25.29;53.63;99491.86;1767206;79;21093;-61
2022/06/10 02:50:16;;;;;;;4.60;4.20;;;;;;;25.29;53.67;99498.11;1772591;79;21069;-60
2022/06/10 02:52:43;;;;;;;5.85;4.40;;;;;;;25.29;53.76;99495.39;1766124;79;22028;-61
2022/06/10 02:55:19;;;;;;;6.60;4.40;;;;;;;25.28;53.83;99496.48;1755634;80;21043;-60
2022/06/10 03:04:26;;;;;;;4.47;4.08;;;;;;;25.29;53.87;99501.38;1769810;79;21123;-60
2022/06/10 03:07:28;;;;;;;4.33;3.92;;;;;;;25.28;53.82;99504.64;1764215;80;21212;-60
2022/06/10 03:10:26;;;;;;;4.72;4.15;;;;;;;25.26;53.78;99500.55;1758492;79;21088;-61
2022/06/10 03:13:09;;;;;;;5.55;3.65;;;;;;;25.26;53.79;99508.15;1761741;79;21108;-59
2022/06/10 03:15:58;;;;;;;4.33;3.80;;;;;;;25.25;53.84;99498.93;1794209;78;21134;-60
2022/06/10 03:19:00;;;;;;;4.35;3.95;;;;;;;25.24;53.83;99491.30;1766859;80;21061;-62
2022/06/10 03:22:01;;;;;;;5.30;4.22;;;;;;;25.25;53.85;99505.17;1741720;81;21679;-61
2022/06/10 03:24:42;;;;;;;4.25;3.85;;;;;;;25.25;53.80;99511.16;1745350;81;21111;-62
2022/06/10 03:27:26;;;;;;;6.15;4.50;;;;;;;25.24;53.88;99504.08;1770707;79;21017;-61
2022/06/10 03:30:10;;;;;;;5.03;4.28;;;;;;;25.23;53.88;99507.91;1766382;79;21109;-61
2022/06/10 03:33:02;;;;;;;9.58;3.87;;;;;;;25.24;53.88;99510.88;1758403;79;21005;-60
2022/06/10 03:35:40;;;;;;;4.50;4.00;;;;;;;25.24;53.93;99501.36;1795486;78;21005;-61
2022/06/10 03:38:07;;;;;;;6.42;3.98;;;;;;;25.24;53.83;99506.25;1798823;78;21380;-62
2022/06/10 03:40:33;;;;;;;6.47;4.28;;;;;;;25.24;53.78;99493.20;1800601;78;21592;-61
2022/06/10 03:43:03;;;;;;;8.10;4.55;;;;;;;25.26;53.70;99497.83;1820108;78;21628;-63
2022/06/10 03:45:44;;;;;;;5.80;4.30;;;;;;;25.25;53.67;99488.87;1777407;79;21041;-61
2022/06/10 03:48:18;;;;;;;4.92;4.30;;;;;;;25.26;53.65;99493.75;1762305;79;21080;-61
2022/06/10 03:50:47;;;;;;;5.75;3.90;;;;;;;25.27;53.64;99497.56;1748550;80;28263;-63
2022/06/10 03:53:17;;;;;;;5.67;3.95;;;;;;;25.27;53.69;99501.64;1786613;79;21083;-61
2022/06/10 03:55:45;;;;;;;6.42;4.30;;;;;;;25.27;53.72;99497.56;1784571;79;21101;-61
2022/06/10 03:58:11;;;;;;;5.25;3.80;;;;;;;25.29;53.71;99500.83;1811847;78;21044;-61
2022/06/10 04:00:38;;;;;;;4.55;4.15;;;;;;;25.29;53.64;99504.91;1778962;79;21087;-62
2022/06/10 04:03:04;;;;;;;5.08;4.20;;;;;;;25.31;53.64;99507.36;1778835;79;22394;-61
2022/06/10 04:05:32;;;;;;;4.42;3.65;;;;;;;25.33;53.62;99513.89;1807823;78;21100;-62
2022/06/10 04:07:59;;;;;;;4.45;3.98;;;;;;;25.34;53.59;99505.98;1772176;79;21659;-60
2022/06/10 04:10:28;;;;;;;5.62;4.22;;;;;;;25.34;53.56;99506.80;1777632;79;21573;-61
2022/06/10 04:12:55;;;;;;;7.17;4.58;;;;;;;25.35;53.49;99504.91;1809572;78;21006;-61
2022/06/10 04:15:25;;;;;;;6.08;4.47;;;;;;;25.37;53.40;99503.55;1759911;80;21046;-61
2022/06/10 04:17:52;;;;;;;4.15;3.75;;;;;;;25.38;53.35;99515.23;1818894;78;21033;-61
2022/06/10 04:20:27;;;;;;;4.50;4.10;;;;;;;25.40;53.43;99514.41;1775824;80;21026;-62
2022/06/10 04:22:54;;;;;;;4.03;3.58;;;;;;;25.41;53.43;99517.42;1757554;79;21615;-61
2022/06/10 04:25:21;;;;;;;4.65;4.08;;;;;;;25.43;53.33;99521.48;1775893;79;21096;-61
2022/06/10 04:27:47;;;;;;;5.65;4.28;;;;;;;25.44;53.28;99518.22;1768666;79;21144;-61
2022/06/10 04:30:28;;;;;;;4.35;3.95;;;;;;;25.46;53.27;99525.59;1762351;79;21518;-61
2022/06/10 04:32:55;;;;;;;5.83;4.30;;;;;;;25.46;53.29;99522.31;1793748;78;21141;-61
2022/06/10 04:35:22;;;;;;;5.72;3.90;;;;;;;25.49;53.27;99522.30;1805363;78;21022;-61
2022/06/10 04:37:49;;;;;;;4.70;4.30;;;;;;;25.51;53.27;99528.28;1820649;78;21029;-61
2022/06/10 04:40:20;;;;;;;6.78;4.60;;;;;;;25.53;53.20;99535.63;1793745;78;21524;-62
2022/06/10 04:42:48;;;;;;;6.03;4.25;;;;;;;25.55;53.21;99534.81;1804834;78;21537;-62
2022/06/10 04:45:16;;;;;;;6.08;4.10;;;;;;;25.56;53.17;99535.65;1795333;79;21552;-62
2022/06/10 04:47:43;;;;;;;5.53;4.30;;;;;;;25.57;53.05;99536.70;1795365;78;20989;-61
2022/06/10 04:50:11;;;;;;;4.60;4.20;;;;;;;25.58;53.02;99547.88;1798161;78;20993;-61
2022/06/10 04:52:37;;;;;;;5.05;4.60;;;;;;;25.60;52.96;99542.17;1791786;78;21124;-61
2022/06/10 04:55:06;;;;;;;6.28;4.58;;;;;;;25.62;53.00;99541.35;1803483;78;21599;-62
2022/06/10 04:57:32;;;;;;;4.95;4.30;;;;;;;25.63;52.88;99547.88;1778814;80;21777;-61
2022/06/10 04:59:59;;;;;;;4.55;4.00;;;;;;;25.64;52.75;99545.97;1784304;80;21021;-59
2022/06/10 05:02:25;;;;;;;5.95;4.33;;;;;;;25.67;52.82;99553.57;1793059;78;21125;-61
2022/06/10 05:04:52;;;;;;;5.42;4.90;;;;;;;25.69;52.63;99559.55;1815454;78;21501;-61
2022/06/10 05:07:18;;;;;;;7.17;4.55;;;;;;;25.72;52.59;99562.30;1763738;79;21012;-61
2022/06/10 05:09:45;;;;;;;5.15;4.65;;;;;;;25.74;52.52;99557.39;1792657;79;21132;-61
2022/06/10 05:12:11;;;;;;;6.50;4.75;;;;;;;25.75;52.46;99559.01;1783368;79;21001;-60
2022/06/10 05:14:40;;;;;;;6.12;4.33;;;;;;;25.77;52.43;99556.83;1760392;79;20997;-60
2022/06/10 05:17:06;;;;;;;6.22;4.40;;;;;;;25.79;52.39;99557.41;1792357;79;21057;-60
2022/06/10 05:19:33;;;;;;;6.25;4.83;;;;;;;25.81;52.31;99554.67;1809112;78;21153;-61
2022/06/10 05:21:59;;;;;;;6.12;4.95;;;;;;;25.83;52.33;99556.56;1759667;80;21755;-60
2022/06/10 05:24:26;;;;;;;6.87;4.65;;;;;;;25.85;52.21;99560.38;1745696;79;21070;-60
2022/06/10 05:26:52;;;;;;;5.22;4.70;;;;;;;25.86;52.19;99568.28;1774904;79;21074;-62
2022/06/10 05:29:19;;;;;;;8.43;4.25;;;;;;;25.88;52.24;99566.09;1781869;79;21038;-59
2022/06/10 05:31:46;;;;;;;7.00;5.05;;;;;;;25.90;52.17;99567.16;1763404;79;21484;-60
2022/06/10 05:36:59;;;;;;;6.80;4.50;;;;;;;25.94;52.14;99567.47;1783182;79;21025;-60
2022/06/10 05:39:26;;;;;;;8.80;4.85;;;;;;;25.94;52.14;99576.47;1753203;80;21025;-61
2022/06/10 05:42:05;;;;;;;6.83;4.58;;;;;;;25.96;52.10;99576.17;1777079;79;21067;-60
2022/06/10 05:44:33;;;;;;;5.90;4.75;;;;;;;25.97;52.07;99577.27;1776785;80;21150;-60
2022/06/10 05:47:03;;;;;;;6.85;4.58;;;;;;;26.00;52.00;99578.61;1763037;79;22049;-60
2022/06/10 05:49:30;;;;;;;5.97;4.85;;;;;;;26.00;52.01;99578.09;1776248;79;21004;-61
2022/06/10 05:51:56;;;;;;;6.33;4.67;;;;;;;26.02;51.97;99581.34;1761127;81;21001;-61
2022/06/10 05:54:24;;;;;;;6.83;4.60;;;;;;;26.05;51.91;99576.70;1766640;79;21260;-61
2022/06/10 05:56:52;;;;;;;6.20;5.28;;;;;;;26.06;51.80;99581.06;1799045;78;21019;-61
2022/06/10 05:59:19;;;;;;;6.22;5.12;;;;;;;26.08;51.74;99586.23;1738555;80;21137;-62
2022/06/10 06:01:45;;;;;;;5.35;4.85;;;;;;;26.10;51.79;99590.86;1796496;78;20981;-61
2022/06/10 06:04:12;;;;;;;6.55;5.35;;;;;;;26.12;51.75;99591.95;1784807;78;21572;-61
2022/06/10 06:06:41;;;;;;;6.20;4.97;;;;;;;26.13;51.73;99597.66;1795142;79;21042;-60
2022/06/10 06:09:10;;;;;;;8.53;5.28;;;;;;;26.14;51.66;99594.66;1798395;78;21063;-61
2022/06/10 06:11:36;;;;;;;7.03;4.78;;;;;;;26.17;51.72;99590.56;1780789;79;21093;-61
2022/06/10 06:14:02;;;;;;;6.75;5.00;;;;;;;26.18;51.62;99594.94;1786945;79;21112;-61
2022/06/10 06:16:30;;;;;;;12.10;5.28;;;;;;;26.20;51.58;99596.28;1776253;79;21066;-61
2022/06/10 06:18:57;;;;;;;5.40;4.90;;;;;;;26.22;51.56;99590.56;1753157;80;21568;-61
2022/06/10 06:21:23;;;;;;;5.15;4.53;;;;;;;26.23;51.47;99598.47;1772150;79;20985;-61
2022/06/10 06:23:50;;;;;;;5.70;5.20;;;;;;;26.26;51.45;99595.73;1771255;80;21138;-61
2022/06/10 06:26:16;;;;;;;6.12;5.45;;;;;;;26.27;51.41;99597.37;1782422;79;21096;-62
2022/06/10 06:28:44;;;;;;;8.90;4.67;;;;;;;26.29;51.41;99593.83;1769763;79;21020;-61
2022/06/10 06:31:12;;;;;;;7.17;5.37;;;;;;;26.32;51.46;99595.17;1772229;79;21073;-64
2022/06/10 06:33:38;;;;;;;7.85;5.00;;;;;;;26.35;51.56;99593.24;1766773;79;21168;-64
2022/06/10 06:36:09;;;;;;;7.30;5.47;;;;;;;26.38;51.69;99599.52;1804342;77;21061;-62
2022/06/10 06:38:35;;;;;;;6.90;5.25;;;;;;;26.41;52.07;99603.86;1775827;78;21049;-65
2022/06/10 06:41:02;;;;;;;8.70;5.45;;;;;;;26.46;52.17;99603.02;1768467;79;21021;-64
2022/06/10 06:43:29;;;;;;;7.47;4.92;;;;;;;26.51;52.05;99607.66;1771213;79;21057;-66
2022/06/10 06:45:56;;;;;;;6.33;4.92;;;;;;;26.54;52.01;99603.84;1779291;79;21554;-63
2022/06/10 06:48:22;;;;;;;7.87;5.25;;;;;;;26.58;52.07;99612.24;1767820;79;21103;-64
2022/06/10 06:50:49;;;;;;;8.05;5.20;;;;;;;26.61;52.06;99606.28;1773422;79;21059;-62
2022/06/10 06:53:17;;;;;;;10.20;5.53;;;;;;;26.64;51.82;99608.47;1766955;79;21072;-65
2022/06/10 06:55:44;;;;;;;12.68;6.53;;;;;;;26.67;51.74;99612.78;1767219;79;21032;-63
2022/06/10 06:58:14;;;;;;;9.78;7.40;;;;;;;26.72;51.45;99611.97;1772625;79;21052;-65
2022/06/10 07:00:41;;;;;;;13.60;8.28;;;;;;;26.73;51.05;99608.14;1778398;79;21106;-63
2022/06/10 07:03:08;;;;;;;9.88;8.08;;;;;;;26.77;51.09;99616.58;1766884;79;21016;-65
2022/06/10 07:05:35;;;;;;;14.05;8.00;;;;;;;26.80;51.18;99615.47;1767522;79;21018;-66
2022/06/10 07:08:02;;;;;;;12.30;7.60;;;;;;;26.84;51.27;99619.27;1758351;80;21006;-64
2022/06/10 07:10:29;;;;;;;11.88;7.62;;;;;;;26.86;51.14;99621.16;1761179;79;21539;-63
2022/06/10 07:12:55;;;;;;;11.53;8.30;;;;;;;26.89;51.02;99621.17;1776923;79;21144;-63
2022/06/10 07:15:23;;;;;;;9.25;8.23;;;;;;;26.91;50.88;99612.17;1755668;79;21068;-63
2022/06/10 07:17:50;;;;;;;8.78;7.25;;;;;;;26.93;50.60;99611.34;1759453;80;21604;-63
2022/06/10 07:20:28;;;;;;;10.38;7.25;;;;;;;26.95;50.52;99617.33;1778438;79;21053;-63
2022/06/10 07:22:54;;;;;;;9.85;7.22;;;;;;;26.98;50.69;99620.84;1760888;79;21060;-59
2022/06/10 07:25:22;;;;;;;11.50;6.85;;;;;;;27.02;50.53;99619.73;1763831;79;21136;-59
2022/06/10 07:27:48;;;;;;;10.08;7.58;;;;;;;27.04;50.96;99616.18;1766088;79;21060;-61
2022/06/10 07:30:17;;;;;;;13.10;8.40;;;;;;;27.05;51.18;99613.18;1761327;79;21536;-60
2022/06/10 07:32:44;;;;;;;9.40;7.33;;;;;;;27.07;51.41;99618.36;1770265;79;21211;-60
2022/06/10 07:35:11;;;;;;;8.93;6.67;;;;;;;27.09;51.61;99617.52;1775697;79;21569;-60
2022/06/10 07:37:38;;;;;;;10.43;7.10;;;;;;;27.11;51.45;99621.34;1773145;79;21090;-60
2022/06/10 07:40:06;;;;;;;9.15;7.05;;;;;;;27.12;51.19;99620.23;1766478;79;21167;-61
2022/06/10 07:42:37;;;;;;;11.50;7.83;;;;;;;27.14;50.93;99616.14;1782791;79;21334;-58
2022/06/10 07:45:05;;;;;;;12.55;7.58;;;;;;;27.14;51.22;99617.51;1774331;79;21470;-59
2022/06/10 07:47:31;;;;;;;11.60;8.38;;;;;;;27.15;51.30;99627.30;1772667;79;21602;-61
2022/06/10 07:49:59;;;;;;;9.70;7.45;;;;;;;27.17;51.30;99626.47;1767473;79;21542;-59
2022/06/10 07:52:26;;;;;;;10.28;7.42;;;;;;;27.17;51.38;99623.75;1759241;79;21041;-61
2022/06/10 07:54:52;;;;;;;11.80;7.45;;;;;;;27.19;51.14;99625.64;1760591;79;21025;-60
2022/06/10 07:57:19;;;;;;;8.63;7.28;;;;;;;27.20;51.48;99616.38;1775856;79;21084;-61
2022/06/10 07:59:45;;;;;;;9.23;6.90;;;;;;;27.22;51.57;99625.65;1764683;80;21564;-59
2022/06/10 08:02:13;;;;;;;10.28;7.28;;;;;;;27.23;51.59;99625.34;1759526;79;21576;-61
2022/06/10 08:04:40;;;;;;;9.73;6.53;;;;;;;27.24;51.44;99626.18;1770146;79;21139;-59
2022/06/10 08:07:06;;;;;;;10.30;7.00;;;;;;;27.24;51.40;99637.92;1770572;79;21047;-59
2022/06/10 08:09:33;;;;;;;11.05;7.15;;;;;;;27.25;51.29;99634.64;1767616;79;20993;-59
2022/06/10 08:12:00;;;;;;;8.53;7.17;;;;;;;27.25;51.21;99627.30;1779200;79;21015;-58
2022/06/10 08:14:26;;;;;;;8.08;7.20;;;;;;;27.26;50.64;99622.09;1768416;80;21117;-58
2022/06/10 08:16:54;;;;;;;9.08;6.95;;;;;;;27.28;50.67;99626.47;1774055;79;21038;-59
2022/06/10 08:19:22;;;;;;;8.63;7.53;;;;;;;27.27;50.49;99626.99;1768667;79;21092;-61
2022/06/10 08:22:32;;;;;;;9.88;7.75;;;;;;;27.29;50.51;99630.81;1776712;79;21060;-61
2022/06/10 08:24:21;;;;;;;9.25;6.80;;;;;;;27.29;50.39;99626.16;1741584;79;21219;-59
2022/06/10 08:26:48;;;;;;;8.40;6.55;;;;;;;27.30;50.17;99628.36;1762563;79;21140;-60
2022/06/10 08:29:16;;;;;;;8.65;6.80;;;;;;;27.30;50.23;99623.72;1779344;79;21096;-59
2022/06/10 08:31:43;;;;;;;9.88;7.58;;;;;;;27.31;49.87;99625.33;1774689;79;21001;-60
2022/06/10 08:34:11;;;;;;;8.70;7.03;;;;;;;27.31;50.07;99620.44;1762946;79;21072;-59
2022/06/10 08:36:40;;;;;;;10.38;7.10;;;;;;;27.32;49.95;99622.88;1776247;79;21573;-60
2022/06/10 08:39:07;;;;;;;11.00;7.67;;;;;;;27.33;49.85;99626.42;1770448;79;21099;-59
2022/06/10 08:41:48;;;;;;;7.65;6.85;;;;;;;27.34;49.68;99623.97;1767058;79;21112;-59
2022/06/10 08:44:26;;;;;;;8.70;7.30;;;;;;;27.35;49.75;99624.22;1756313;79;21036;-59
2022/06/10 08:47:22;;;;;;;10.68;7.90;;;;;;;27.35;49.50;99624.22;1769579;79;21144;-61
2022/06/10 08:50:00;;;;;;;9.30;8.03;;;;;;;27.36;49.14;99637.58;1774560;79;21549;-58
2022/06/10 08:52:54;;;;;;;11.28;8.38;;;;;;;27.36;49.08;99630.77;1783510;79;21803;-60
2022/06/10 08:56:00;;;;;;;12.53;8.38;;;;;;;27.37;49.50;99620.66;1780791;79;21014;-60
2022/06/10 08:58:40;;;;;;;12.07;8.45;;;;;;;27.37;49.31;99631.05;1760015;80;21002;-61
2022/06/10 09:01:14;;;;;;;11.50;9.68;;;;;;;27.37;49.09;99622.02;1779783;78;21072;-60
2022/06/10 09:03:59;;;;;;;12.30;9.18;;;;;;;27.37;48.81;99624.23;1794944;78;20993;-61
2022/06/10 09:06:31;;;;;;;11.00;9.70;;;;;;;27.37;48.85;99632.94;1805064;78;21142;-61
2022/06/10 09:09:02;;;;;;;11.03;10.03;;;;;;;27.37;48.46;99628.31;1763426;78;21053;-60
2022/06/10 09:11:39;;;;;;;12.15;9.93;;;;;;;27.38;48.34;99638.11;1788113;78;21060;-60
2022/06/10 09:14:21;;;;;;;12.35;9.85;;;;;;;27.40;48.49;99629.09;1769776;78;21563;-60
2022/06/10 09:16:56;;;;;;;11.53;10.32;;;;;;;27.41;48.63;99639.45;1759123;80;21009;-61
2022/06/10 09:19:37;;;;;;;13.13;10.00;;;;;;;27.43;48.76;99632.64;1765595;79;22587;-61
2022/06/10 09:22:30;;;;;;;12.25;10.35;;;;;;;27.44;48.64;99624.70;1738430;79;21493;-60
2022/06/10 09:25:43;;;;;;;14.05;10.95;;;;;;;27.46;48.73;99623.06;1764703;79;22331;-60
2022/06/10 09:28:10;;;;;;;11.73;10.48;;;;;;;27.46;48.69;99625.79;1767021;79;21056;-60
2022/06/10 09:30:58;;;;;;;12.37;11.03;;;;;;;27.46;48.45;99625.23;1760887;80;21061;-60
2022/06/10 09:33:49;;;;;;;13.98;10.82;;;;;;;27.47;48.66;99623.34;1787444;78;21140;-60
2022/06/10 09:36:26;;;;;;;12.40;10.85;;;;;;;27.48;48.56;99628.24;1803812;78;21020;-60
2022/06/10 09:40:35;;;;;;;11.83;10.45;;;;;;;27.46;48.35;99621.14;1792272;78;21526;-60
2022/06/10 09:41:59;;;;;;;12.28;10.85;;;;;;;27.48;48.03;99629.05;1795538;78;21076;-59
2022/06/10 09:44:38;;;;;;;17.30;11.18;;;;;;;27.48;48.09;99629.05;1765372;79;21029;-61
2022/06/10 09:47:28;;;;;;;12.20;10.40;;;;;;;27.50;48.09;99628.77;1757066;80;21345;-59
2022/06/10 09:50:33;;;;;;;12.00;10.80;;;;;;;27.51;48.01;99623.59;1758376;79;21135;-62
2022/06/10 09:53:28;;;;;;;14.07;10.82;;;;;;;27.53;47.84;99630.39;1783769;78;21580;-61
2022/06/10 09:56:34;;;;;;;12.23;10.80;;;;;;;27.56;47.74;99629.80;1797352;78;21024;-59
2022/06/10 09:59:23;;;;;;;10.80;9.68;;;;;;;27.59;47.79;99627.89;1706165;79;21575;-62
2022/06/10 10:02:10;;;;;;;11.70;10.50;;;;;;;27.62;47.66;99629.22;1725260;78;21127;-62
2022/06/10 10:05:18;;;;;;;10.85;9.78;;;;;;;27.64;47.49;99636.05;1794324;78;21076;-60
2022/06/10 10:08:12;;;;;;;11.57;9.48;;;;;;;27.68;47.44;99637.66;1777026;78;21064;-61
2022/06/10 10:11:02;;;;;;;10.48;9.33;;;;;;;27.71;47.51;99639.00;1785998;79;21032;-64
2022/06/10 10:13:57;;;;;;;10.18;8.95;;;;;;;27.75;47.36;99639.49;1754903;79;21004;-62
2022/06/10 10:16:40;;;;;;;10.98;9.88;;;;;;;27.77;47.66;99632.39;1768112;79;21863;-62
2022/06/10 10:19:20;;;;;;;10.40;9.40;;;;;;;27.81;47.60;99640.27;1771953;79;21053;-61
2022/06/10 10:21:52;;;;;;;9.73;8.88;;;;;;;27.84;47.25;99634.26;1764494;79;21017;-61
2022/06/10 10:24:24;;;;;;;10.65;9.45;;;;;;;27.86;47.33;99637.52;1768383;80;21045;-61
2022/06/10 10:26:51;;;;;;;10.53;9.43;;;;;;;27.90;47.21;99639.16;1761418;79;21155;-62
2022/06/10 10:29:25;;;;;;;10.38;9.30;;;;;;;27.92;46.94;99635.03;1773011;79;21143;-60
2022/06/10 10:32:06;;;;;;;11.00;9.38;;;;;;;27.96;46.89;99635.28;1769280;79;21005;-60
2022/06/10 10:34:36;;;;;;;9.45;8.55;;;;;;;28.00;46.94;99634.41;1765137;80;21085;-59
2022/06/10 10:37:21;;;;;;;9.20;8.25;;;;;;;28.05;46.86;99644.48;1752637;79;21052;-60
2022/06/10 10:39:55;;;;;;;11.83;9.35;;;;;;;28.10;46.64;99650.44;1768909;79;21045;-61
2022/06/10 10:42:24;;;;;;;8.88;7.97;;;;;;;28.13;46.62;99643.05;1771108;79;21124;-61
2022/06/10 10:45:07;;;;;;;8.90;8.05;;;;;;;28.17;46.55;99647.64;1761054;79;21104;-62
2022/06/10 10:47:36;;;;;;;8.78;7.97;;;;;;;28.21;46.36;99645.97;1756513;79;21017;-61
2022/06/10 10:50:11;;;;;;;8.88;7.75;;;;;;;28.26;46.32;99638.30;1772725;79;21053;-63
2022/06/10 10:52:44;;;;;;;8.93;8.13;;;;;;;28.29;46.39;99639.06;1771354;79;21108;-63
2022/06/10 10:55:25;;;;;;;9.35;8.45;;;;;;;28.35;46.40;99637.09;1770605;79;21104;-62
2022/06/10 10:58:18;;;;;;;9.00;7.45;;;;;;;28.39;46.37;99635.41;1764946;79;21124;-60
2022/06/10 11:00:48;;;;;;;9.18;8.23;;;;;;;28.44;46.18;99629.91;1765676;79;21540;-61
2022/06/10 11:03:30;;;;;;;11.83;7.83;;;;;;;28.48;46.23;99624.12;1735548;79;21018;-63
2022/06/10 11:06:03;;;;;;;8.75;7.85;;;;;;;28.51;46.24;99629.05;1754979;79;21020;-62
2022/06/10 11:08:37;;;;;;;10.05;7.35;;;;;;;28.54;46.21;99624.35;1754955;80;21112;-62
2022/06/10 11:11:22;;;;;;;9.60;7.90;;;;;;;28.59;46.02;99626.23;1775107;79;21046;-62
2022/06/10 11:13:59;;;;;;;11.63;7.62;;;;;;;28.61;46.06;99627.55;1771390;79;21037;-62
2022/06/10 11:16:35;;;;;;;11.28;8.50;;;;;;;28.66;45.98;99618.47;1769900;80;21065;-62
2022/06/10 11:19:16;;;;;;;10.18;7.80;;;;;;;28.69;45.73;99620.64;1769300;80;20998;-61
2022/06/10 11:22:21;;;;;;;9.68;8.68;;;;;;;28.73;45.49;99622.23;1783842;79;21063;-59
2022/06/10 11:24:55;;;;;;;8.65;7.75;;;;;;;28.76;45.21;99614.27;1764442;79;21081;-60
2022/06/10 11:27:35;;;;;;;8.30;7.50;;;;;;;28.78;45.15;99612.06;1781716;80;21049;-60
2022/06/10 11:30:16;;;;;;;9.10;8.23;;;;;;;28.81;44.93;99612.83;1785875;78;21108;-61
2022/06/10 11:32:58;;;;;;;9.78;7.50;;;;;;;28.81;44.78;99610.09;1783603;79;21489;-60
2022/06/10 11:36:04;;;;;;;8.55;7.75;;;;;;;28.83;44.65;99610.61;1800705;78;21557;-59
2022/06/10 11:38:33;;;;;;;9.73;8.38;;;;;;;28.86;44.53;99610.59;1820112;78;21057;-61
2022/06/10 11:41:23;;;;;;;7.87;7.17;;;;;;;28.89;44.21;99609.19;1796572;78;21575;-62
2022/06/10 11:43:55;;;;;;;9.75;8.40;;;;;;;28.92;43.98;99605.88;1800967;78;21024;-59
2022/06/10 11:46:37;;;;;;;9.23;8.13;;;;;;;28.95;43.91;99604.71;1803532;78;21009;-61
2022/06/10 11:49:24;;;;;;;14.28;7.53;;;;;;;28.99;43.58;99603.58;1794214;78;21754;-60
2022/06/10 11:52:11;;;;;;;9.55;8.68;;;;;;;29.00;43.88;99597.82;1774103;79;21021;-59
2022/06/10 11:54:46;;;;;;;10.85;7.92;;;;;;;29.02;44.68;99598.90;1773767;79;21714;-61
2022/06/10 12:00:21;;;;;;;11.20;8.13;;;;;;;28.99;45.68;99597.58;1775666;79;21096;-59
2022/06/10 12:02:57;;;;;;;11.08;8.85;;;;;;;28.99;45.87;99603.05;1768607;79;21135;-59
2022/06/10 12:05:47;;;;;;;13.03;8.85;;;;;;;29.00;45.83;99599.75;1763923;79;21015;-60
2022/06/10 12:08:32;;;;;;;10.05;8.33;;;;;;;29.01;45.86;99595.89;1763092;79;21045;-60
2022/06/10 12:11:13;;;;;;;9.28;8.38;;;;;;;29.05;46.01;99592.02;1776206;79;21025;-58
2022/06/10 12:13:57;;;;;;;13.53;9.00;;;;;;;29.08;45.98;99590.08;1764739;79;21062;-60
2022/06/10 12:16:25;;;;;;;12.23;9.10;;;;;;;29.12;45.96;99583.73;1739340;79;21266;-60
2022/06/10 12:18:51;;;;;;;12.78;8.50;;;;;;;29.15;44.89;99587.83;1761235;79;21477;-62
2022/06/10 12:21:22;;;;;;;9.98;8.43;;;;;;;29.17;45.17;99579.57;1772359;79;21090;-63
2022/06/10 12:23:48;;;;;;;10.72;8.43;;;;;;;29.22;45.17;99581.41;1768693;79;21056;-63
2022/06/10 12:26:36;;;;;;;9.25;8.30;;;;;;;29.26;45.57;99587.10;1775739;79;21044;-62